Terminal Aerodrome Forecast
Issued by NWS

Home | Current Version | Previous Version | Text Only | Print | Product List | Glossary On
Versions: 1 2 3 4 5 6 7 8 9 10 11 12 13 14 15 16 17 18 19 20 21 22 23
357
FTAK31 PAJN 061720
TAFAGY
TAF
PAGY 061720Z 0618/0718 20005KT P6SM VCSH BKN015 OVC050
     FM062000 21015KT P6SM VCSH SCT015 BKN050 OVC070
     FM070300 21008KT P6SM SCT050 BKN070 OVC090
     FM070700 04008KT P6SM SCT050 BKN090
      AMD LTD TO CLD VIS AND WIND=

USA.gov is the U.S. government's official web portal to all federal, state and local government web resources and services.